Time;durP1;ratioP1;P1;durP2;ratioP2;P2;SDS_P1;SDS_P2;PMS_P1;PMS_P2;Temp;Humidity;BMP_temperature;BMP_pressure;BME280_temperature;BME280_humidity;BME280_pressure;Samples;Min_cycle;Max_cycle;Signal;HPM_P1;HPM_P2
2023/06/02 05:20:06;;;;;;;;;;;;;;;;;;5341673;23;19968;-83
2023/06/02 05:22:32;;;;;;;;;;;;;;;;;;4992787;28;19983;-89
2023/06/02 05:24:57;;;;;;;;;;;;;;;;;;4992560;28;19930;-85
2023/06/02 05:27:22;;;;;;;;;;;;;;;;;;4993671;28;19952;-88
2023/06/02 05:29:47;;;;;;;;;;;;;;;;;;4996321;28;19930;-88
2023/06/02 05:32:13;;;;;;;;;;;;;;;;;;5019652;28;19985;-89
2023/06/02 05:34:39;;;;;;;;;;;;;;;;;;5014024;28;19925;-87
2023/06/02 05:37:04;;;;;;;;;;;;;;;;;;5012773;28;19929;-85
2023/06/02 05:39:30;;;;;;;;;;;;;;;;;;5013648;28;20296;-87
2023/06/02 05:41:55;;;;;;;;;;;;;;;;;;5013524;28;19933;-87
2023/06/02 05:44:20;;;;;;;;;;;;;;;;;;5012728;28;20048;-86
2023/06/02 05:46:45;;;;;;;;;;;;;;;;;;5013118;28;19925;-87
2023/06/02 05:49:11;;;;;;;;;;;;;;;;;;5012404;28;19929;-85
2023/06/02 05:51:36;;;;;;;;;;;;;;;;;;5012619;28;19936;-87
2023/06/02 05:54:01;;;;;;;;;;;;;;;;;;5012724;28;20321;-88
2023/06/02 05:56:27;;;;;;;;;;;;;;;;;;5012449;28;20385;-87
2023/06/02 05:58:52;;;;;;;;;;;;;;;;;;5012480;28;19926;-86
2023/06/02 06:01:17;;;;;;;;;;;;;;;;;;5012360;28;19936;-85
2023/06/02 06:03:42;;;;;;;;;;;;;;;;;;5012559;28;19937;-86
2023/06/02 06:06:08;;;;;;;;;;;;;;;;;;4999742;28;19929;-83
2023/06/02 06:08:33;;;;;;;;;;;;;;;;;;5011419;28;20284;-84
2023/06/02 06:10:59;;;;;;;;;;;;;;;;;;5011693;28;19933;-84
2023/06/02 06:13:24;;;;;;;;;;;;;;;;;;5012086;28;19929;-86
2023/06/02 06:15:49;;;;;;;;;;;;;;;;;;5011695;28;19932;-89
2023/06/02 06:18:15;;;;;;;;;;;;;;;;;;5012606;28;19925;-88
2023/06/02 06:20:43;;;;;;;;;;;;;;;;;;5011796;28;20423;-84
2023/06/02 06:23:10;;;;;;;;;;;;;;;;;;5011481;28;20421;-86
2023/06/02 06:25:35;;;;;;;;;;;;;;;;;;5012561;28;19932;-89
2023/06/02 06:28:01;;;;;;;;;;;;;;;;;;4994381;28;20004;-88
2023/06/02 06:30:26;;;;;;;;;;;;;;;;;;5004194;28;19929;-86
2023/06/02 06:32:51;;;;;;;;;;;;;;;;;;4993039;28;19926;-87
2023/06/02 06:35:16;;;;;;;;;;;;;;;;;;4991764;28;19984;-87
2023/06/02 06:37:42;;;;;;;;;;;;;;;;;;4995326;28;19925;-88
2023/06/02 06:40:07;;;;;;;;;;;;;;;;;;5005404;28;20677;-85
2023/06/02 06:42:33;;;;;;;;;;;;;;;;;;5003471;28;19929;-86
2023/06/02 06:44:58;;;;;;;;;;;;;;;;;;5003219;28;19934;-86
2023/06/02 06:47:23;;;;;;;;;;;;;;;;;;5002877;28;20382;-86
2023/06/02 06:49:51;;;;;;;;;;;;;;;;;;5003502;28;19925;-86
2023/06/02 06:52:17;;;;;;;;;;;;;;;;;;5003005;28;19929;-88
2023/06/02 06:54:42;;;;;;;;;;;;;;;;;;5003071;28;19926;-85
2023/06/02 06:57:08;;;;;;;;;;;;;;;;;;5002191;28;20424;-85
2023/06/02 06:59:34;;;;;;;;;;;;;;;;;;5003007;28;19936;-86
2023/06/02 07:01:59;;;;;;;;;;;;;;;;;;4985498;28;19933;-86
2023/06/02 07:04:24;;;;;;;;;;;;;;;;;;5002584;28;19925;-85
2023/06/02 07:06:50;;;;;;;;;;;;;;;;;;5003190;28;19929;-86
2023/06/02 07:09:15;;;;;;;;;;;;;;;;;;5002519;28;19933;-85
2023/06/02 07:11:41;;;;;;;;;;;;;;;;;;5002498;28;19929;-85
2023/06/02 07:14:06;;;;;;;;;;;;;;;;;;5002478;28;19929;-86
2023/06/02 07:16:31;;;;;;;;;;;;;;;;;;5003408;28;19936;-85
2023/06/02 07:18:56;;;;;;;;;;;;;;;;;;5002146;28;20381;-85
2023/06/02 07:21:22;;;;;;;;;;;;;;;;;;5002481;28;20398;-86
2023/06/02 07:23:47;;;;;;;;;;;;;;;;;;5003027;28;20451;-84
2023/06/02 07:26:12;;;;;;;;;;;;;;;;;;5002175;28;19969;-86
2023/06/02 07:28:38;;;;;;;;;;;;;;;;;;5006186;28;20401;-87
2023/06/02 07:31:03;;;;;;;;;;;;;;;;;;5006592;28;20004;-85
2023/06/02 07:33:28;;;;;;;;;;;;;;;;;;5006598;28;19930;-85
2023/06/02 07:35:54;;;;;;;;;;;;;;;;;;5007021;28;19929;-85
2023/06/02 07:38:19;;;;;;;;;;;;;;;;;;5006492;28;20282;-85
2023/06/02 07:40:45;;;;;;;;;;;;;;;;;;5006668;28;20282;-84
2023/06/02 07:43:10;;;;;;;;;;;;;;;;;;5006444;28;20020;-85
2023/06/02 07:45:35;;;;;;;;;;;;;;;;;;5006892;28;20283;-86
2023/06/02 07:48:01;;;;;;;;;;;;;;;;;;4989529;28;20461;-85
2023/06/02 07:50:26;;;;;;;;;;;;;;;;;;5006418;28;19976;-85
2023/06/02 07:52:52;;;;;;;;;;;;;;;;;;5006446;28;19926;-84
2023/06/02 07:55:17;;;;;;;;;;;;;;;;;;4988018;28;20324;-86
2023/06/02 07:57:42;;;;;;;;;;;;;;;;;;5006707;28;19925;-87
2023/06/02 08:00:18;;;;;;;;;;;;;;;;;;5006008;28;20451;-84
2023/06/02 08:02:43;;;;;;;;;;;;;;;;;;5006366;28;19926;-86
2023/06/02 08:05:09;;;;;;;;;;;;;;;;;;5005589;28;20366;-85
2023/06/02 08:07:35;;;;;;;;;;;;;;;;;;5006483;28;19929;-85
2023/06/02 08:10:00;;;;;;;;;;;;;;;;;;4993002;28;20186;-84
2023/06/02 08:12:25;;;;;;;;;;;;;;;;;;4989302;28;19933;-85
2023/06/02 08:14:51;;;;;;;;;;;;;;;;;;5005976;28;20030;-85
2023/06/02 08:17:16;;;;;;;;;;;;;;;;;;5005220;28;19937;-85
2023/06/02 08:19:41;;;;;;;;;;;;;;;;;;4992330;28;19957;-85
2023/06/02 08:22:06;;;;;;;;;;;;;;;;;;5014089;28;19931;-89
2023/06/02 08:24:32;;;;;;;;;;;;;;;;;;5013035;28;20358;-88
2023/06/02 08:26:57;;;;;;;;;;;;;;;;;;5014417;28;20385;-87
2023/06/02 08:29:23;;;;;;;;;;;;;;;;;;5014068;28;21748;-87
2023/06/02 08:31:48;;;;;;;;;;;;;;;;;;5013697;28;20338;-88
2023/06/02 08:34:14;;;;;;;;;;;;;;;;;;5013669;28;19956;-88
2023/06/02 08:36:42;;;;;;;;;;;;;;;;;;5014591;28;20316;-89
2023/06/02 08:39:07;;;;;;;;;;;;;;;;;;5012273;28;19929;-86
2023/06/02 08:41:35;;;;;;;;;;;;;;;;;;5014104;28;19921;-87
2023/06/02 08:44:00;;;;;;;;;;;;;;;;;;5014296;28;19926;-85
2023/06/02 08:46:26;;;;;;;;;;;;;;;;;;5006700;28;19936;-84
2023/06/02 08:48:55;;;;;;;;;;;;;;;;;;5006891;28;19968;-86
2023/06/02 08:51:24;;;;;;;;;;;;;;;;;;5012418;28;19932;-84
2023/06/02 08:53:49;;;;;;;;;;;;;;;;;;4997968;28;19922;-85
2023/06/02 08:56:15;;;;;;;;;;;;;;;;;;5012911;28;19925;-85
2023/06/02 08:58:45;;;;;;;;;;;;;;;;;;5013657;28;19929;-84
2023/06/02 09:01:10;;;;;;;;;;;;;;;;;;5012814;28;20008;-84
2023/06/02 09:03:36;;;;;;;;;;;;;;;;;;5013568;28;20341;-86
2023/06/02 09:06:16;;;;;;;;;;;;;;;;;;5013643;28;20270;-85
2023/06/02 09:08:50;;;;;;;;;;;;;;;;;;5012803;28;20305;-83
2023/06/02 09:11:17;;;;;;;;;;;;;;;;;;5013265;28;19929;-87
2023/06/02 09:13:43;;;;;;;;;;;;;;;;;;5013453;28;19925;-86
2023/06/02 09:16:08;;;;;;;;;;;;;;;;;;5012971;28;19925;-82
2023/06/02 09:18:33;;;;;;;;;;;;;;;;;;5013015;28;19992;-82
2023/06/02 09:20:59;;;;;;;;;;;;;;;;;;5012770;28;19930;-85
2023/06/02 09:23:43;;;;;;;;;;;;;;;;;;5012874;28;19949;-82
2023/06/02 09:26:19;;;;;;;;;;;;;;;;;;5012643;28;20293;-83
2023/06/02 09:28:44;;;;;;;;;;;;;;;;;;5013377;28;19925;-82
2023/06/02 09:31:11;;;;;;;;;;;;;;;;;;5010930;28;19925;-81
2023/06/02 09:33:36;;;;;;;;;;;;;;;;;;5012950;28;19948;-82
2023/06/02 09:36:04;;;;;;;;;;;;;;;;;;5012754;28;20849;-83
2023/06/02 09:38:41;;;;;;;;;;;;;;;;;;5011814;28;19988;-83
2023/06/02 09:41:15;;;;;;;;;;;;;;;;;;5011816;28;19925;-84
2023/06/02 09:43:41;;;;;;;;;;;;;;;;;;4995136;28;19926;-84
2023/06/02 09:46:06;;;;;;;;;;;;;;;;;;5012131;28;19976;-85
2023/06/02 09:48:34;;;;;;;;;;;;;;;;;;5012423;28;19926;-86
2023/06/02 09:51:00;;;;;;;;;;;;;;;;;;5011712;28;20278;-82
2023/06/02 09:53:25;;;;;;;;;;;;;;;;;;5011582;28;19926;-85
2023/06/02 09:55:51;;;;;;;;;;;;;;;;;;5012778;28;19929;-85
2023/06/02 09:58:16;;;;;;;;;;;;;;;;;;5011848;28;19926;-85
2023/06/02 10:00:42;;;;;;;;;;;;;;;;;;4993979;28;19972;-85
2023/06/02 10:03:07;;;;;;;;;;;;;;;;;;5011988;28;20287;-86
2023/06/02 10:05:33;;;;;;;;;;;;;;;;;;5010905;28;20279;-86
2023/06/02 10:08:31;;;;;;;;;;;;;;;;;;5011559;28;19929;-84
2023/06/02 10:11:02;;;;;;;;;;;;;;;;;;4950041;28;19951;-85
2023/06/02 10:13:27;;;;;;;;;;;;;;;;;;4951149;28;19990;-86
2023/06/02 10:16:07;;;;;;;;;;;;;;;;;;4951647;29;19926;-85
2023/06/02 10:18:51;;;;;;;;;;;;;;;;;;4951162;29;20319;-85
2023/06/02 10:21:24;;;;;;;;;;;;;;;;;;4950730;29;19944;-87
2023/06/02 10:24:11;;;;;;;;;;;;;;;;;;4951528;29;20001;-85
2023/06/02 10:26:44;;;;;;;;;;;;;;;;;;4951250;29;19949;-83
2023/06/02 10:29:12;;;;;;;;;;;;;;;;;;4951086;29;20026;-84
2023/06/02 10:31:37;;;;;;;;;;;;;;;;;;4951225;29;20359;-84
2023/06/02 10:34:03;;;;;;;;;;;;;;;;;;4951224;29;19926;-83
2023/06/02 10:36:48;;;;;;;;;;;;;;;;;;4951274;29;19949;-83
2023/06/02 10:39:32;;;;;;;;;;;;;;;;;;4950986;29;20351;-84
2023/06/02 10:42:07;;;;;;;;;;;;;;;;;;4951384;29;19930;-84
2023/06/02 10:44:33;;;;;;;;;;;;;;;;;;4951035;29;19927;-87
2023/06/02 10:47:17;;;;;;;;;;;;;;;;;;4992699;28;19925;-86
2023/06/02 10:49:51;;;;;;;;;;;;;;;;;;5011585;28;20299;-85
2023/06/02 10:52:16;;;;;;;;;;;;;;;;;;5010949;28;19926;-84
2023/06/02 10:54:41;;;;;;;;;;;;;;;;;;5011998;28;19931;-84
2023/06/02 10:57:09;;;;;;;;;;;;;;;;;;5010642;28;19933;-83
2023/06/02 10:59:35;;;;;;;;;;;;;;;;;;5011528;28;19932;-85
2023/06/02 11:02:01;;;;;;;;;;;;;;;;;;5011909;28;20393;-83
2023/06/02 11:04:27;;;;;;;;;;;;;;;;;;5010514;28;19932;-84
2023/06/02 11:07:28;;;;;;;;;;;;;;;;;;5011667;28;19926;-85
2023/06/02 11:10:00;;;;;;;;;;;;;;;;;;5010463;28;19933;-83
2023/06/02 11:12:51;;;;;;;;;;;;;;;;;;5010938;28;20032;-84
2023/06/02 11:15:17;;;;;;;;;;;;;;;;;;4969647;28;19934;-83
2023/06/02 11:17:43;;;;;;;;;;;;;;;;;;4969993;28;19930;-85
2023/06/02 11:20:08;;;;;;;;;;;;;;;;;;4969162;28;19942;-82
2023/06/02 11:22:34;;;;;;;;;;;;;;;;;;4954416;28;20468;-83
2023/06/02 11:25:01;;;;;;;;;;;;;;;;;;4969979;28;19928;-83
2023/06/02 11:27:40;;;;;;;;;;;;;;;;;;4969686;28;20009;-85
2023/06/02 11:30:06;;;;;;;;;;;;;;;;;;4969529;28;19926;-82
2023/06/02 11:32:32;;;;;;;;;;;;;;;;;;4969871;28;19930;-85
2023/06/02 11:35:00;;;;;;;;;;;;;;;;;;4970119;28;19926;-86
2023/06/02 11:37:26;;;;;;;;;;;;;;;;;;4970075;28;19933;-83
2023/06/02 11:39:54;;;;;;;;;;;;;;;;;;4970064;28;19930;-85
2023/06/02 11:42:20;;;;;;;;;;;;;;;;;;4969626;28;20029;-85
2023/06/02 11:44:50;;;;;;;;;;;;;;;;;;4969951;28;19926;-85
2023/06/02 11:47:19;;;;;;;;;;;;;;;;;;4968889;28;19926;-83
2023/06/02 11:49:45;;;;;;;;;;;;;;;;;;4969718;28;19990;-84
2023/06/02 11:52:11;;;;;;;;;;;;;;;;;;4981200;28;19960;-86
2023/06/02 11:54:52;;;;;;;;;;;;;;;;;;5003470;28;19956;-86
2023/06/02 11:57:44;;;;;;;;;;;;;;;;;;5010500;28;19925;-84
2023/06/02 12:00:15;;;;;;;;;;;;;;;;;;5008473;28;19925;-83
2023/06/02 12:02:43;;;;;;;;;;;;;;;;;;5010981;28;19925;-86
2023/06/02 12:05:10;;;;;;;;;;;;;;;;;;5010693;28;19930;-83
2023/06/02 12:07:36;;;;;;;;;;;;;;;;;;5011005;28;19964;-84
2023/06/02 12:10:03;;;;;;;;;;;;;;;;;;5010967;28;19953;-83
2023/06/02 12:12:29;;;;;;;;;;;;;;;;;;5010230;28;19925;-83
2023/06/02 12:14:54;;;;;;;;;;;;;;;;;;5012772;28;20008;-84
2023/06/02 12:17:19;;;;;;;;;;;;;;;;;;5013616;28;20337;-83
2023/06/02 12:19:55;;;;;;;;;;;;;;;;;;5014048;28;19925;-82
2023/06/02 12:22:20;;;;;;;;;;;;;;;;;;5013725;28;19932;-83
2023/06/02 12:24:45;;;;;;;;;;;;;;;;;;5014247;28;19925;-82
2023/06/02 12:27:20;;;;;;;;;;;;;;;;;;5013731;28;19983;-84
2023/06/02 12:29:45;;;;;;;;;;;;;;;;;;5013893;28;19925;-85
2023/06/02 12:32:11;;;;;;;;;;;;;;;;;;5013791;28;20345;-86
2023/06/02 12:34:37;;;;;;;;;;;;;;;;;;5014085;28;19925;-85
2023/06/02 12:37:03;;;;;;;;;;;;;;;;;;5013937;28;19932;-86
2023/06/02 12:39:29;;;;;;;;;;;;;;;;;;5013882;28;19925;-88
2023/06/02 12:41:54;;;;;;;;;;;;;;;;;;5014033;28;19979;-85
2023/06/02 12:44:19;;;;;;;;;;;;;;;;;;5013401;28;19925;-85
2023/06/02 12:46:45;;;;;;;;;;;;;;;;;;5013747;28;19926;-85
2023/06/02 12:49:12;;;;;;;;;;;;;;;;;;5013430;28;19980;-86
2023/06/02 12:51:37;;;;;;;;;;;;;;;;;;5014240;28;19930;-85
2023/06/02 12:54:02;;;;;;;;;;;;;;;;;;5013719;28;19925;-85
2023/06/02 12:56:28;;;;;;;;;;;;;;;;;;5013211;28;19926;-85
2023/06/02 12:58:54;;;;;;;;;;;;;;;;;;5013624;28;20405;-85
2023/06/02 13:01:21;;;;;;;;;;;;;;;;;;5013302;28;19971;-85
2023/06/02 13:03:49;;;;;;;;;;;;;;;;;;5013447;28;20385;-85
2023/06/02 13:06:15;;;;;;;;;;;;;;;;;;5012894;28;19988;-85
2023/06/02 13:08:40;;;;;;;;;;;;;;;;;;5013545;28;20394;-82
2023/06/02 13:11:06;;;;;;;;;;;;;;;;;;5012867;28;20024;-84
2023/06/02 13:13:31;;;;;;;;;;;;;;;;;;5013247;28;20004;-84
2023/06/02 13:15:56;;;;;;;;;;;;;;;;;;5013146;28;19933;-83
2023/06/02 13:18:22;;;;;;;;;;;;;;;;;;4995212;28;19936;-84
2023/06/02 13:20:47;;;;;;;;;;;;;;;;;;5012205;28;20424;-84
2023/06/02 13:23:13;;;;;;;;;;;;;;;;;;5005042;28;19987;-85
2023/06/02 13:25:39;;;;;;;;;;;;;;;;;;5004256;28;20461;-84
2023/06/02 13:28:05;;;;;;;;;;;;;;;;;;5004148;28;19925;-86
2023/06/02 13:30:30;;;;;;;;;;;;;;;;;;5004362;28;20208;-85
2023/06/02 13:32:55;;;;;;;;;;;;;;;;;;5004192;28;19930;-84
2023/06/02 13:35:21;;;;;;;;;;;;;;;;;;5003809;28;20020;-85
2023/06/02 13:37:46;;;;;;;;;;;;;;;;;;5004233;28;19925;-85
2023/06/02 13:40:12;;;;;;;;;;;;;;;;;;5004265;28;19929;-88
2023/06/02 13:42:37;;;;;;;;;;;;;;;;;;5004824;28;19925;-86
2023/06/02 13:45:03;;;;;;;;;;;;;;;;;;5003576;28;19968;-86
2023/06/02 13:47:28;;;;;;;;;;;;;;;;;;5004142;28;19933;-86
2023/06/02 13:49:54;;;;;;;;;;;;;;;;;;5003840;28;20409;-85
2023/06/02 13:52:19;;;;;;;;;;;;;;;;;;5003729;28;19929;-85
2023/06/02 13:54:44;;;;;;;;;;;;;;;;;;5004081;28;20056;-86
2023/06/02 13:57:09;;;;;;;;;;;;;;;;;;5006656;28;19929;-85
2023/06/02 13:59:35;;;;;;;;;;;;;;;;;;4991264;28;19929;-87
2023/06/02 14:02:01;;;;;;;;;;;;;;;;;;5004484;28;19925;-85
2023/06/02 14:04:26;;;;;;;;;;;;;;;;;;4994368;28;19945;-86
2023/06/02 14:06:51;;;;;;;;;;;;;;;;;;5003320;28;20620;-86
2023/06/02 14:09:17;;;;;;;;;;;;;;;;;;5004040;28;19925;-86
2023/06/02 14:11:43;;;;;;;;;;;;;;;;;;5003894;28;20493;-85
2023/06/02 14:14:08;;;;;;;;;;;;;;;;;;5003418;28;19932;-87
2023/06/02 14:16:34;;;;;;;;;;;;;;;;;;5003481;28;20186;-87
2023/06/02 14:18:59;;;;;;;;;;;;;;;;;;4991092;28;19926;-86
2023/06/02 14:21:25;;;;;;;;;;;;;;;;;;4991048;28;19925;-78
2023/06/02 14:23:50;;;;;;;;;;;;;;;;;;4992134;28;19973;-85
2023/06/02 14:26:16;;;;;;;;;;;;;;;;;;4992203;28;20331;-86
2023/06/02 14:28:41;;;;;;;;;;;;;;;;;;4975196;28;19932;-85
2023/06/02 14:31:07;;;;;;;;;;;;;;;;;;4986712;28;20263;-85
2023/06/02 14:33:32;;;;;;;;;;;;;;;;;;4994927;28;19925;-86
2023/06/02 14:35:57;;;;;;;;;;;;;;;;;;5011182;28;19929;-85
2023/06/02 14:38:23;;;;;;;;;;;;;;;;;;5011205;28;19953;-85
2023/06/02 14:40:48;;;;;;;;;;;;;;;;;;5013085;28;20182;-84
2023/06/02 14:43:13;;;;;;;;;;;;;;;;;;5022639;28;19936;-85
2023/06/02 14:45:39;;;;;;;;;;;;;;;;;;5019279;28;19926;-85
2023/06/02 14:48:04;;;;;;;;;;;;;;;;;;5021270;28;20343;-83
2023/06/02 14:50:31;;;;;;;;;;;;;;;;;;5015696;28;19961;-85
2023/06/02 14:52:56;;;;;;;;;;;;;;;;;;5018167;28;19925;-86
2023/06/02 14:55:21;;;;;;;;;;;;;;;;;;5016169;28;19932;-87
2023/06/02 14:57:47;;;;;;;;;;;;;;;;;;5013983;28;20341;-84
2023/06/02 15:00:12;;;;;;;;;;;;;;;;;;5014321;28;20037;-87
2023/06/02 15:02:37;;;;;;;;;;;;;;;;;;5007654;28;19925;-84
2023/06/02 15:05:03;;;;;;;;;;;;;;;;;;5012018;28;20030;-84
2023/06/02 15:07:28;;;;;;;;;;;;;;;;;;5000598;28;20279;-83
2023/06/02 15:09:53;;;;;;;;;;;;;;;;;;4996706;28;20352;-83
2023/06/02 15:12:18;;;;;;;;;;;;;;;;;;4992403;28;19926;-83
2023/06/02 15:14:44;;;;;;;;;;;;;;;;;;4993373;28;19930;-82
2023/06/02 15:17:10;;;;;;;;;;;;;;;;;;4996736;28;20025;-82
2023/06/02 15:19:36;;;;;;;;;;;;;;;;;;5010898;28;19941;-83
2023/06/02 15:22:01;;;;;;;;;;;;;;;;;;5006794;28;19932;-83
2023/06/02 15:24:26;;;;;;;;;;;;;;;;;;5010628;28;19926;-82
2023/06/02 15:26:52;;;;;;;;;;;;;;;;;;5008522;28;19948;-85
2023/06/02 15:29:17;;;;;;;;;;;;;;;;;;4999548;28;20020;-84
2023/06/02 15:31:42;;;;;;;;;;;;;;;;;;5007913;28;19921;-84
2023/06/02 15:34:08;;;;;;;;;;;;;;;;;;5004193;28;20409;-84
2023/06/02 15:36:33;;;;;;;;;;;;;;;;;;5007638;28;19932;-85
2023/06/02 15:38:58;;;;;;;;;;;;;;;;;;5003401;28;20008;-83
2023/06/02 15:41:24;;;;;;;;;;;;;;;;;;5030081;28;19926;-81
2023/06/02 15:43:49;;;;;;;;;;;;;;;;;;5023692;28;19929;-82
2023/06/02 15:46:15;;;;;;;;;;;;;;;;;;5028456;28;20303;-83
2023/06/02 15:48:44;;;;;;;;;;;;;;;;;;5013744;28;19949;-78
2023/06/02 15:51:09;;;;;;;;;;;;;;;;;;5016136;28;19929;-82
2023/06/02 15:53:34;;;;;;;;;;;;;;;;;;5027977;28;20437;-84
2023/06/02 15:55:59;;;;;;;;;;;;;;;;;;5032751;28;19925;-83
2023/06/02 15:58:25;;;;;;;;;;;;;;;;;;5029268;28;19964;-84
2023/06/02 16:00:50;;;;;;;;;;;;;;;;;;5026361;28;19925;-84
2023/06/02 16:03:15;;;;;;;;;;;;;;;;;;5014715;28;20023;-86
2023/06/02 16:05:40;;;;;;;;;;;;;;;;;;5018210;28;19975;-86
2023/06/02 16:08:06;;;;;;;;;;;;;;;;;;5015211;28;19940;-88
2023/06/02 16:10:31;;;;;;;;;;;;;;;;;;5017014;28;20915;-87
2023/06/02 16:12:56;;;;;;;;;;;;;;;;;;5013696;28;19929;-85
2023/06/02 16:15:22;;;;;;;;;;;;;;;;;;5014157;28;19975;-85
2023/06/02 16:17:47;;;;;;;;;;;;;;;;;;5018954;28;19925;-86
2023/06/02 16:20:13;;;;;;;;;;;;;;;;;;5020556;28;19925;-87
2023/06/02 16:22:38;;;;;;;;;;;;;;;;;;5003914;28;19929;-87
2023/06/02 16:25:06;;;;;;;;;;;;;;;;;;4994572;28;19926;-85
2023/06/02 16:27:31;;;;;;;;;;;;;;;;;;4988781;28;20394;-87
2023/06/02 16:29:56;;;;;;;;;;;;;;;;;;5003138;28;20016;-85
2023/06/02 16:32:22;;;;;;;;;;;;;;;;;;5010018;28;19926;-87
2023/06/02 16:34:47;;;;;;;;;;;;;;;;;;4996651;28;19926;-85
2023/06/02 16:37:15;;;;;;;;;;;;;;;;;;5013036;28;20428;-85
2023/06/02 16:39:40;;;;;;;;;;;;;;;;;;5013971;28;19929;-88
2023/06/02 16:42:05;;;;;;;;;;;;;;;;;;5013630;28;20378;-85
2023/06/02 16:44:31;;;;;;;;;;;;;;;;;;5013716;28;19932;-85
2023/06/02 16:46:56;;;;;;;;;;;;;;;;;;5013448;28;20424;-86
2023/06/02 16:49:21;;;;;;;;;;;;;;;;;;5013251;28;19936;-85
2023/06/02 16:51:46;;;;;;;;;;;;;;;;;;5013168;28;19921;-84
2023/06/02 16:54:14;;;;;;;;;;;;;;;;;;5012921;28;19925;-83
2023/06/02 16:56:40;;;;;;;;;;;;;;;;;;5013785;28;19932;-84
2023/06/02 16:59:05;;;;;;;;;;;;;;;;;;5013286;28;20317;-85
2023/06/02 17:01:31;;;;;;;;;;;;;;;;;;5012981;28;19926;-85
2023/06/02 17:03:57;;;;;;;;;;;;;;;;;;4995819;28;19936;-84
2023/06/02 17:06:22;;;;;;;;;;;;;;;;;;5012602;28;19925;-85
2023/06/02 17:08:48;;;;;;;;;;;;;;;;;;5013466;28;20464;-85
2023/06/02 17:11:13;;;;;;;;;;;;;;;;;;5007831;28;19932;-85
2023/06/02 17:13:39;;;;;;;;;;;;;;;;;;5012862;28;19933;-87
2023/06/02 17:16:04;;;;;;;;;;;;;;;;;;5012437;28;19965;-83
2023/06/02 17:18:30;;;;;;;;;;;;;;;;;;5012094;28;19925;-86
